createdAt,value
2022-12-16T00:01:23.048Z,42.92
2022-12-16T00:04:10.756Z,42.53
2022-12-16T00:06:59.677Z,46.72
2022-12-16T00:09:47.621Z,43.53
2022-12-16T00:12:35.055Z,42.58
2022-12-16T00:15:22.365Z,45.85
2022-12-16T00:18:09.727Z,45.13
2022-12-16T00:20:57.308Z,42.00
2022-12-16T00:23:46.334Z,42.00
2022-12-16T00:26:33.902Z,41.13
2022-12-16T00:29:21.668Z,42.50
2022-12-16T00:32:09.206Z,41.08
2022-12-16T00:34:56.667Z,38.25
2022-12-16T00:37:43.999Z,37.67
2022-12-16T00:40:32.865Z,38.90
2022-12-16T00:43:20.893Z,38.72
2022-12-16T00:46:08.499Z,38.42
2022-12-16T00:48:56.294Z,40.15
2022-12-16T00:51:43.846Z,37.72
2022-12-16T00:54:31.194Z,37.78
2022-12-16T00:57:19.967Z,38.00
2022-12-16T01:00:12.968Z,39.70
2022-12-16T01:03:03.767Z,38.92
2022-12-16T01:05:51.287Z,38.30
2022-12-16T01:08:40.591Z,38.92
2022-12-16T01:11:28.144Z,38.90
2022-12-16T01:14:16.793Z,37.90
2022-12-16T01:17:04.427Z,40.65
2022-12-16T01:19:51.880Z,40.28
2022-12-16T01:22:39.941Z,38.50
2022-12-16T01:25:28.023Z,37.60
2022-12-16T01:28:15.343Z,41.83
2022-12-16T01:31:04.073Z,42.40
2022-12-16T01:33:51.951Z,41.83
2022-12-16T01:36:39.610Z,40.33
2022-12-16T01:39:30.185Z,39.13
2022-12-16T01:42:20.364Z,39.63
2022-12-16T01:45:31.510Z,42.63
2022-12-16T01:48:26.009Z,37.72
2022-12-16T01:51:19.193Z,37.42
2022-12-16T01:54:11.366Z,40.40
2022-12-16T01:57:01.939Z,37.42
2022-12-16T01:59:51.921Z,39.00
2022-12-16T02:02:39.775Z,36.85
2022-12-16T02:05:30.199Z,37.30
2022-12-16T02:08:19.108Z,34.47
2022-12-16T02:11:25.861Z,36.40
2022-12-16T02:14:32.444Z,35.05
2022-12-16T02:17:29.520Z,32.15
2022-12-16T02:20:59.269Z,32.28
2022-12-16T02:24:20.397Z,31.23
2022-12-16T02:27:35.734Z,32.42
2022-12-16T02:30:46.120Z,33.92
2022-12-16T02:33:57.291Z,33.97
2022-12-16T02:36:58.538Z,31.80
2022-12-16T02:39:53.467Z,31.67
2022-12-16T02:42:48.576Z,31.15
2022-12-16T02:45:39.034Z,32.95
2022-12-16T02:48:26.715Z,29.17
2022-12-16T02:51:14.997Z,31.60
2022-12-16T02:54:03.255Z,31.52
2022-12-16T02:57:03.259Z,33.92
2022-12-16T02:59:58.709Z,32.25
2022-12-16T03:02:54.963Z,32.30
2022-12-16T03:05:48.280Z,31.60
2022-12-16T03:08:40.424Z,32.45
2022-12-16T03:11:31.088Z,31.30
2022-12-16T03:14:21.641Z,32.60
2022-12-16T03:17:10.050Z,31.75
2022-12-16T03:20:08.674Z,33.88
2022-12-16T03:23:00.612Z,31.67
2022-12-16T03:25:51.793Z,30.67
2022-12-16T03:28:46.848Z,32.35
2022-12-16T03:31:39.964Z,29.48
2022-12-16T03:34:35.743Z,33.58
2022-12-16T03:37:30.035Z,32.35
2022-12-16T03:40:19.113Z,32.08
2022-12-16T03:43:08.007Z,30.88
2022-12-16T03:45:59.674Z,34.47
2022-12-16T03:48:49.796Z,30.38
2022-12-16T03:51:37.226Z,30.92
2022-12-16T03:54:26.031Z,31.45
2022-12-16T03:57:15.680Z,32.55
2022-12-16T04:00:04.221Z,32.72
2022-12-16T04:02:59.194Z,32.13
2022-12-16T04:05:47.147Z,30.05
2022-12-16T04:08:34.743Z,30.50
2022-12-16T04:11:40.942Z,29.70
2022-12-16T04:14:50.277Z,29.40
2022-12-16T04:17:58.197Z,27.15
2022-12-16T04:21:06.406Z,28.60
2022-12-16T04:24:14.592Z,29.42
2022-12-16T04:27:20.971Z,27.75
2022-12-16T04:30:22.097Z,29.50
2022-12-16T04:33:33.125Z,28.45
2022-12-16T04:36:38.076Z,29.63
2022-12-16T04:39:42.709Z,27.60
2022-12-16T04:42:49.479Z,28.73
2022-12-16T04:45:54.483Z,30.00
2022-12-16T04:48:55.923Z,28.92
2022-12-16T04:52:00.832Z,29.70
2022-12-16T04:55:05.593Z,30.95
2022-12-16T04:58:28.120Z,27.75
2022-12-16T05:01:33.290Z,30.38
2022-12-16T05:04:38.769Z,27.67
2022-12-16T05:07:44.052Z,29.35
2022-12-16T05:10:48.933Z,27.55
2022-12-16T05:13:55.168Z,27.90
2022-12-16T05:17:00.244Z,26.13
2022-12-16T05:20:04.842Z,29.55
2022-12-16T05:23:09.749Z,28.23
2022-12-16T05:26:29.246Z,28.52
2022-12-16T05:29:36.025Z,27.40
2022-12-16T05:32:41.070Z,28.70
2022-12-16T05:35:57.726Z,29.15
2022-12-16T05:39:02.947Z,29.80
2022-12-16T05:42:08.214Z,29.38
2022-12-16T05:45:14.475Z,28.00
2022-12-16T05:48:28.028Z,29.50
2022-12-16T05:51:32.723Z,28.13
2022-12-16T05:54:37.720Z,28.92
2022-12-16T05:57:42.612Z,29.23
2022-12-16T06:00:49.024Z,28.65
2022-12-16T06:03:54.147Z,31.52
2022-12-16T06:06:59.354Z,27.38
2022-12-16T06:10:12.683Z,29.13
2022-12-16T06:13:17.804Z,28.67
2022-12-16T06:16:24.687Z,27.98
2022-12-16T06:22:33.914Z,25.60
2022-12-16T06:25:38.970Z,26.90
2022-12-16T06:28:45.997Z,24.85
2022-12-16T06:31:52.795Z,28.67
2022-12-16T06:34:57.462Z,27.40
2022-12-16T06:38:05.692Z,24.77
2022-12-16T06:41:10.706Z,24.10
2022-12-16T06:44:15.912Z,23.30
2022-12-16T06:47:22.258Z,23.45
2022-12-16T06:50:28.016Z,23.95
2022-12-16T06:53:33.601Z,24.02
2022-12-16T06:56:38.513Z,24.13
2022-12-16T06:59:43.398Z,21.30
2022-12-16T07:02:49.832Z,21.95
2022-12-16T07:05:54.503Z,21.58
2022-12-16T07:08:59.017Z,20.42
2022-12-16T07:12:03.753Z,21.52
2022-12-16T07:15:08.329Z,21.98
2022-12-16T07:18:14.758Z,21.42
2022-12-16T07:21:19.224Z,23.45
2022-12-16T07:24:24.478Z,23.65
2022-12-16T07:27:31.337Z,23.98
2022-12-16T07:30:36.626Z,26.33
2022-12-16T07:33:42.724Z,27.35
2022-12-16T07:36:47.671Z,28.43
2022-12-16T07:39:55.109Z,28.35
2022-12-16T07:43:00.997Z,29.55
2022-12-16T07:46:06.015Z,30.60
2022-12-16T07:49:12.601Z,30.15
2022-12-16T07:52:29.303Z,30.95
2022-12-16T07:55:34.800Z,30.23
2022-12-16T07:58:36.001Z,31.50
2022-12-16T08:01:41.815Z,31.15
2022-12-16T08:04:48.006Z,31.90
2022-12-16T08:07:53.230Z,32.78
2022-12-16T08:11:12.987Z,32.15
2022-12-16T08:14:18.316Z,34.42
2022-12-16T08:17:23.119Z,34.10
2022-12-16T08:20:29.552Z,33.92
2022-12-16T08:23:34.795Z,35.75
2022-12-16T08:26:40.457Z,35.63
2022-12-16T08:29:45.780Z,34.92
2022-12-16T08:32:55.705Z,36.63
2022-12-16T08:36:05.157Z,34.42
2022-12-16T08:39:10.337Z,38.78
2022-12-16T08:42:15.659Z,37.20
2022-12-16T08:45:20.594Z,35.65
2022-12-16T08:48:25.317Z,37.28
2022-12-16T08:51:31.850Z,37.60
2022-12-16T08:54:36.767Z,38.28
2022-12-16T08:57:41.761Z,37.67
2022-12-16T09:00:48.804Z,38.75
2022-12-16T09:03:54.083Z,37.60
2022-12-16T09:07:00.790Z,39.65
2022-12-16T09:10:05.802Z,38.33
2022-12-16T09:13:11.017Z,38.42
2022-12-16T09:16:19.381Z,40.08
2022-12-16T09:19:25.116Z,39.08
2022-12-16T09:22:31.360Z,38.58
2022-12-16T09:25:36.422Z,37.73
2022-12-16T09:28:41.185Z,39.33
2022-12-16T09:31:46.194Z,38.67
2022-12-16T09:34:51.378Z,38.30
2022-12-16T09:38:04.092Z,38.97
2022-12-16T09:41:08.581Z,41.13
2022-12-16T09:44:21.018Z,37.70
2022-12-16T09:47:36.217Z,39.95
2022-12-16T09:50:46.460Z,38.70
2022-12-16T09:54:04.121Z,37.40
2022-12-16T10:00:19.469Z,35.30
2022-12-16T10:03:32.248Z,38.58
2022-12-16T10:06:55.859Z,39.03
2022-12-16T10:10:11.471Z,38.10
2022-12-16T10:13:26.739Z,38.17
2022-12-16T10:16:40.173Z,39.45
2022-12-16T10:19:57.550Z,38.22
2022-12-16T10:23:11.162Z,39.33
2022-12-16T10:26:22.672Z,39.88
2022-12-16T10:29:35.267Z,38.78
2022-12-16T10:32:58.856Z,40.03
2022-12-16T10:36:08.166Z,39.72
2022-12-16T10:39:19.353Z,39.17
2022-12-16T10:42:36.653Z,38.25
2022-12-16T10:45:46.840Z,40.05
2022-12-16T10:48:56.936Z,41.00
2022-12-16T10:52:08.190Z,39.00
2022-12-16T10:55:21.994Z,38.50
2022-12-16T10:58:41.647Z,39.85
2022-12-16T11:01:47.542Z,39.33
2022-12-16T11:04:55.602Z,40.42
2022-12-16T11:08:12.028Z,40.60
2022-12-16T11:11:20.299Z,39.80
2022-12-16T11:14:36.110Z,37.08
2022-12-16T11:17:42.099Z,41.40
2022-12-16T11:20:46.826Z,39.15
2022-12-16T11:23:51.505Z,37.50
2022-12-16T11:27:11.831Z,39.17
2022-12-16T11:30:20.237Z,38.30
2022-12-16T11:33:33.313Z,40.30
2022-12-16T11:36:42.474Z,37.65
2022-12-16T11:39:53.322Z,38.03
2022-12-16T11:43:01.413Z,40.60
2022-12-16T11:46:13.383Z,37.28
2022-12-16T11:49:24.971Z,40.50
2022-12-16T11:52:37.756Z,40.40
2022-12-16T11:59:20.666Z,38.70
2022-12-16T12:02:33.762Z,39.13
2022-12-16T12:05:46.678Z,40.03
2022-12-16T12:08:59.828Z,38.70
2022-12-16T12:12:16.489Z,38.20
2022-12-16T12:15:33.616Z,40.45
2022-12-16T12:19:02.568Z,39.60
2022-12-16T12:22:18.521Z,39.85
2022-12-16T12:25:28.737Z,38.45
2022-12-16T12:28:46.924Z,40.20
2022-12-16T12:32:01.029Z,40.00
2022-12-16T12:35:15.676Z,43.00
2022-12-16T12:38:28.060Z,42.13
2022-12-16T12:41:38.383Z,42.33
2022-12-16T12:44:54.528Z,43.40
2022-12-16T12:48:08.901Z,42.67
2022-12-16T12:51:23.184Z,45.05
2022-12-16T12:54:38.142Z,43.10
2022-12-16T12:57:46.390Z,43.65
2022-12-16T13:00:58.158Z,43.50
2022-12-16T13:04:20.581Z,43.53
2022-12-16T13:07:27.627Z,44.70
2022-12-16T13:13:57.421Z,40.33
2022-12-16T13:17:26.161Z,46.40
2022-12-16T13:20:54.295Z,48.25
2022-12-16T13:24:03.842Z,45.13
2022-12-16T13:27:20.224Z,46.60
2022-12-16T13:30:43.229Z,47.05
2022-12-16T13:33:49.728Z,46.08
2022-12-16T13:36:54.951Z,47.42
2022-12-16T13:40:02.884Z,46.85
2022-12-16T13:43:11.639Z,48.05
2022-12-16T13:46:35.061Z,47.58
2022-12-16T13:50:01.483Z,46.42
2022-12-16T13:53:11.566Z,44.30
2022-12-16T13:56:19.587Z,48.97
2022-12-16T13:59:30.284Z,45.20
2022-12-16T14:02:44.455Z,46.20
2022-12-16T14:05:55.020Z,47.55
2022-12-16T14:09:00.431Z,44.60
2022-12-16T14:12:14.186Z,46.65
2022-12-16T14:15:24.433Z,48.42
2022-12-16T14:18:43.391Z,44.78
2022-12-16T14:21:56.540Z,47.15
2022-12-16T14:25:01.274Z,48.13
2022-12-16T14:28:08.035Z,44.83
2022-12-16T14:31:23.094Z,43.63
2022-12-16T14:34:33.602Z,48.83
2022-12-16T14:37:40.876Z,47.90
2022-12-16T14:40:48.474Z,48.22
2022-12-16T14:43:54.878Z,46.50
2022-12-16T14:47:01.519Z,44.08
2022-12-16T14:50:09.326Z,43.67
2022-12-16T14:53:31.875Z,40.88
2022-12-16T14:56:39.242Z,47.72
2022-12-16T14:59:45.432Z,45.55
2022-12-16T15:02:58.058Z,45.17
2022-12-16T15:06:04.190Z,45.47
2022-12-16T15:09:12.268Z,47.83
2022-12-16T15:12:17.356Z,48.78
2022-12-16T15:15:27.845Z,49.58
2022-12-16T15:18:38.058Z,48.78
2022-12-16T15:21:43.117Z,48.10
2022-12-16T15:24:53.335Z,45.60
2022-12-16T15:27:58.787Z,46.78
2022-12-16T15:31:06.480Z,44.85
2022-12-16T15:34:43.910Z,43.97
2022-12-16T15:37:56.975Z,45.20
2022-12-16T15:41:10.112Z,48.53
2022-12-16T15:44:15.121Z,45.25
2022-12-16T15:47:20.205Z,44.50
2022-12-16T15:50:32.065Z,43.80
2022-12-16T15:53:49.938Z,43.97
2022-12-16T15:57:02.966Z,44.67
2022-12-16T16:00:25.940Z,44.83
2022-12-16T16:03:44.723Z,44.50
2022-12-16T16:06:51.058Z,43.47
2022-12-16T16:09:57.038Z,45.65
2022-12-16T16:13:02.050Z,46.72
2022-12-16T16:16:07.002Z,45.72
2022-12-16T16:19:12.051Z,46.45
2022-12-16T16:22:18.264Z,47.20
2022-12-16T16:25:24.226Z,49.57
2022-12-16T16:28:29.561Z,49.37
2022-12-16T16:31:34.744Z,45.75
2022-12-16T16:34:40.498Z,47.15
2022-12-16T16:37:47.131Z,46.75
2022-12-16T16:40:54.268Z,48.15
2022-12-16T16:47:05.924Z,45.03
2022-12-16T16:53:32.637Z,44.92
2022-12-16T16:56:38.594Z,48.53
2022-12-16T16:59:44.163Z,51.40
2022-12-16T17:02:49.045Z,47.72
2022-12-16T17:05:54.421Z,52.47
2022-12-16T17:09:01.304Z,54.20
2022-12-16T17:12:06.103Z,52.53
2022-12-16T17:15:11.160Z,51.58
2022-12-16T17:18:15.811Z,53.78
2022-12-16T17:21:20.916Z,60.88
2022-12-16T17:24:27.085Z,52.90
2022-12-16T17:27:33.673Z,52.17
2022-12-16T17:30:46.543Z,54.00
2022-12-16T17:33:52.255Z,50.35
2022-12-16T17:36:57.114Z,50.80
2022-12-16T17:40:03.394Z,54.40
2022-12-16T17:43:08.082Z,60.25
2022-12-16T17:46:18.366Z,54.55
2022-12-16T17:49:19.778Z,55.47
2022-12-16T17:52:25.066Z,55.92
2022-12-16T17:55:31.867Z,53.50
2022-12-16T18:01:42.531Z,54.42
2022-12-16T18:04:47.806Z,59.47
2022-12-16T18:07:53.472Z,60.90
2022-12-16T18:11:00.012Z,60.17
2022-12-16T18:14:07.592Z,65.90
2022-12-16T18:17:12.624Z,59.15
2022-12-16T18:20:19.920Z,61.63
2022-12-16T18:23:25.113Z,63.92
2022-12-16T18:26:31.274Z,65.53
2022-12-16T18:29:36.187Z,64.77
2022-12-16T18:32:41.317Z,63.65
2022-12-16T18:35:46.396Z,61.95
2022-12-16T18:38:51.075Z,60.92
2022-12-16T18:42:03.476Z,65.13
2022-12-16T18:45:08.677Z,69.95
2022-12-16T18:48:13.556Z,61.92
2022-12-16T18:51:18.873Z,69.80
2022-12-16T18:54:24.456Z,63.88
2022-12-16T18:57:33.960Z,62.63
2022-12-16T19:00:42.807Z,65.20
2022-12-16T19:03:47.972Z,62.22
2022-12-16T19:06:53.003Z,62.55
2022-12-16T19:09:57.567Z,64.55
2022-12-16T19:13:04.005Z,56.42
2022-12-16T19:16:13.911Z,61.33
2022-12-16T19:19:20.488Z,62.33
2022-12-16T19:22:25.757Z,64.78
2022-12-16T19:25:30.911Z,69.25
2022-12-16T19:28:37.652Z,60.65
2022-12-16T19:31:42.797Z,65.82
2022-12-16T19:34:47.454Z,71.68
2022-12-16T19:37:53.630Z,71.30
2022-12-16T19:40:58.511Z,66.30
2022-12-16T19:44:06.465Z,64.72
2022-12-16T19:47:14.219Z,61.28
2022-12-16T19:50:18.766Z,61.85
2022-12-16T19:53:23.563Z,56.75
2022-12-16T19:56:27.962Z,63.25
2022-12-16T19:59:34.916Z,62.63
2022-12-16T20:02:39.808Z,64.63
2022-12-16T20:05:45.053Z,64.32
2022-12-16T20:08:52.151Z,63.47
2022-12-16T20:11:57.662Z,59.03
2022-12-16T20:15:04.169Z,62.53
2022-12-16T20:18:09.598Z,66.10
2022-12-16T20:21:14.659Z,60.60
2022-12-16T20:24:19.652Z,58.85
2022-12-16T20:27:24.746Z,62.03
2022-12-16T20:30:31.387Z,61.20
2022-12-16T20:33:36.326Z,57.30
2022-12-16T20:36:41.554Z,62.00
2022-12-16T20:39:52.917Z,59.15
2022-12-16T20:43:01.477Z,55.63
2022-12-16T20:46:07.881Z,61.25
2022-12-16T20:49:12.806Z,62.58
2022-12-16T20:52:17.771Z,59.55
2022-12-16T20:55:22.866Z,63.17
2022-12-16T20:58:27.536Z,59.42
2022-12-16T21:01:33.861Z,63.67
2022-12-16T21:04:38.619Z,65.45
2022-12-16T21:07:43.413Z,62.03
2022-12-16T21:10:48.492Z,62.03
2022-12-16T21:13:56.471Z,64.63
2022-12-16T21:17:19.804Z,61.90
2022-12-16T21:20:25.223Z,66.07
2022-12-16T21:23:31.380Z,66.47
2022-12-16T21:26:35.903Z,64.95
2022-12-16T21:29:40.674Z,58.50
2022-12-16T21:32:47.273Z,68.32
2022-12-16T21:35:51.942Z,62.88
2022-12-16T21:38:57.289Z,67.25
2022-12-16T21:42:01.955Z,67.25
2022-12-16T21:45:03.151Z,67.85
2022-12-16T21:48:13.239Z,67.28
2022-12-16T21:51:18.242Z,65.78
2022-12-16T21:54:23.437Z,71.13
2022-12-16T21:57:29.184Z,69.32
2022-12-16T22:00:34.793Z,67.75
2022-12-16T22:03:41.241Z,67.25
2022-12-16T22:06:48.868Z,65.40
2022-12-16T22:09:54.308Z,71.90
2022-12-16T22:13:00.976Z,66.70
2022-12-16T22:16:14.414Z,65.90
2022-12-16T22:19:20.653Z,63.65
2022-12-16T22:22:25.348Z,66.80
2022-12-16T22:25:30.081Z,66.57
2022-12-16T22:28:35.034Z,61.85
2022-12-16T22:31:39.572Z,66.68
2022-12-16T22:34:45.875Z,70.45
2022-12-16T22:37:50.799Z,68.55
2022-12-16T22:40:56.613Z,68.77
2022-12-16T22:44:02.460Z,63.20
2022-12-16T22:47:07.333Z,64.72
2022-12-16T22:50:13.879Z,63.92
2022-12-16T22:53:18.464Z,69.18
2022-12-16T22:56:23.657Z,61.95
2022-12-16T22:59:28.400Z,65.60
2022-12-16T23:02:33.213Z,62.00
2022-12-16T23:05:39.360Z,61.50
2022-12-16T23:08:44.198Z,64.50
2022-12-16T23:11:53.734Z,66.50
2022-12-16T23:15:01.526Z,63.67
2022-12-16T23:18:11.470Z,57.67
2022-12-16T23:21:17.775Z,58.47
2022-12-16T23:24:22.923Z,64.67
2022-12-16T23:27:24.203Z,58.72
2022-12-16T23:30:30.107Z,59.47
2022-12-16T23:33:35.322Z,60.53
2022-12-16T23:36:53.341Z,56.47
2022-12-16T23:39:58.450Z,62.40
2022-12-16T23:43:03.572Z,56.83
2022-12-16T23:46:17.203Z,58.45
2022-12-16T23:49:22.693Z,61.25
2022-12-16T23:52:29.243Z,62.20
2022-12-16T23:55:34.478Z,64.93
2022-12-16T23:58:39.609Z,64.03
